LHPA 060945Z 00000KT CAVOK 18/11 Q1029 NOSIG RMK BLU
From batch tds/metars/production/2022/10/6/h10_m24_metars.cache.csv.gz
Observed at (about 1 hour ago)
Identifier LHPA
LHPA 060915Z 28002KT CAVOK 16/11 Q1029 NOSIG RMK BLU
From batch tds/metars/production/2022/10/6/h09_m56_metars.cache.csv.gz
Observed at (about 1 hour ago)
Identifier LHPA
LHPA 060845Z 27004KT CAVOK 16/11 Q1029 NOSIG RMK BLU
From batch tds/metars/production/2022/10/6/h09_m29_metars.cache.csv.gz
Observed at (about 2 hours ago)
Identifier LHPA
LHPA 060815Z 26004KT CAVOK 15/10 Q1029 NOSIG RMK BLU
From batch tds/metars/production/2022/10/6/h08_m51_metars.cache.csv.gz
Observed at (about 2 hours ago)
Identifier LHPA
LHPA 060745Z 23004KT CAVOK 15/10 Q1029 NOSIG RMK BLU
From batch tds/metars/production/2022/10/6/h08_m23_metars.cache.csv.gz
Observed at (about 3 hours ago)
Identifier LHPA
LHPA 060715Z 25004KT CAVOK 14/10 Q1028 NOSIG RMK BLU
From batch tds/metars/production/2022/10/6/h07_m52_metars.cache.csv.gz
Observed at (about 3 hours ago)
Identifier LHPA
LHPA 060645Z 29002KT CAVOK 13/10 Q1028 NOSIG RMK BLU
From batch tds/metars/production/2022/10/6/h07_m27_metars.cache.csv.gz
Observed at (about 4 hours ago)
Identifier LHPA
LHPA 060615Z 29002KT CAVOK 11/09 Q1028 NOSIG RMK BLU
From batch tds/metars/production/2022/10/6/h06_m49_metars.cache.csv.gz
Observed at (about 4 hours ago)
Identifier LHPA
LHPA 060545Z 00000KT CAVOK 09/08 Q1027 NOSIG RMK BLU
From batch tds/metars/production/2022/10/6/h06_m20_metars.cache.csv.gz
Observed at (about 5 hours ago)
Identifier LHPA
LHPA 060515Z 00000KT CAVOK 07/07 Q1027 NOSIG RMK BLU
From batch tds/metars/production/2022/10/6/h05_m57_metars.cache.csv.gz
Observed at (about 5 hours ago)
Identifier LHPA
LHPA 060445Z 18002KT CAVOK 07/07 Q1027 NOSIG RMK BLU
From batch tds/metars/production/2022/10/6/h05_m21_metars.cache.csv.gz
Observed at (about 6 hours ago)
Identifier LHPA
LHPA 060415Z 17002KT CAVOK 07/07 Q1026 NOSIG RMK BLU
From batch tds/metars/production/2022/10/6/h04_m54_metars.cache.csv.gz
Observed at (about 6 hours ago)
Identifier LHPA
LHPA 060345Z 14002KT CAVOK 07/07 Q1027 NOSIG RMK BLU
From batch tds/metars/production/2022/10/6/h04_m25_metars.cache.csv.gz
Observed at (about 7 hours ago)
Identifier LHPA
LHPA 060315Z 03002KT CAVOK 07/07 Q1027 NOSIG RMK BLU
From batch tds/metars/production/2022/10/6/h03_m51_metars.cache.csv.gz
Observed at (about 7 hours ago)
Identifier LHPA
LHPA 060245Z 00000KT CAVOK 08/07 Q1026 NOSIG RMK BLU
From batch tds/metars/production/2022/10/6/h03_m20_metars.cache.csv.gz
Observed at (about 8 hours ago)
Identifier LHPA
LHPA 060215Z 00000KT CAVOK 09/08 Q1026 NOSIG RMK BLU
From batch tds/metars/production/2022/10/6/h02_m52_metars.cache.csv.gz
Observed at (about 8 hours ago)
Identifier LHPA
LHPA 060145Z 30002KT CAVOK 09/07 Q1026 NOSIG RMK BLU
From batch tds/metars/production/2022/10/6/h02_m26_metars.cache.csv.gz
Observed at (about 9 hours ago)
Identifier LHPA
LHPA 060115Z 21002KT CAVOK 12/08 Q1026 NOSIG RMK BLU
From batch tds/metars/production/2022/10/6/h01_m51_metars.cache.csv.gz
Observed at (about 9 hours ago)
Identifier LHPA
LHPA 060045Z 18008KT CAVOK 12/08 Q1026 NOSIG RMK BLU
From batch tds/metars/production/2022/10/6/h01_m22_metars.cache.csv.gz
Observed at (about 10 hours ago)
Identifier LHPA
LHPA 060015Z 18008KT CAVOK 12/08 Q1026 NOSIG RMK BLU
From batch tds/metars/production/2022/10/6/h00_m59_metars.cache.csv.gz
Observed at (about 10 hours ago)
Identifier LHPA
LHPA 052345Z 17006KT CAVOK 12/08 Q1026 NOSIG RMK BLU
From batch tds/metars/production/2022/10/6/h00_m19_metars.cache.csv.gz
Observed at (about 11 hours ago)
Identifier LHPA
LHPA 052315Z 17006KT CAVOK 13/08 Q1026 NOSIG RMK BLU
From batch tds/metars/production/2022/10/5/h23_m58_metars.cache.csv.gz
Observed at (about 11 hours ago)
Identifier LHPA
LHPA 052245Z 17004KT CAVOK 13/08 Q1026 NOSIG RMK BLU
From batch tds/metars/production/2022/10/5/h23_m20_metars.cache.csv.gz
Observed at (about 12 hours ago)
Identifier LHPA
LHPA 052215Z 17006KT CAVOK 13/08 Q1026 NOSIG RMK BLU
From batch tds/metars/production/2022/10/5/h22_m59_metars.cache.csv.gz
Observed at (about 12 hours ago)
Identifier LHPA
LHPA 052145Z 17008KT CAVOK 14/08 Q1026 NOSIG RMK BLU
From batch tds/metars/production/2022/10/5/h22_m23_metars.cache.csv.gz
Observed at (about 13 hours ago)
Identifier LHPA
LHPA 052115Z 17008KT CAVOK 14/09 Q1026 NOSIG RMK BLU
From batch tds/metars/production/2022/10/5/h21_m56_metars.cache.csv.gz
Observed at (about 13 hours ago)
Identifier LHPA
LHPA 052045Z 17008KT CAVOK 14/09 Q1026 NOSIG RMK BLU
From batch tds/metars/production/2022/10/5/h21_m27_metars.cache.csv.gz
Observed at (about 14 hours ago)
Identifier LHPA
LHPA 052015Z 17006KT CAVOK 14/09 Q1026 NOSIG RMK BLU
From batch tds/metars/production/2022/10/5/h20_m57_metars.cache.csv.gz
Observed at (about 14 hours ago)
Identifier LHPA
LHPA 051945Z 16004KT CAVOK 13/09 Q1026 NOSIG RMK BLU
From batch tds/metars/production/2022/10/5/h20_m27_metars.cache.csv.gz
Observed at (about 15 hours ago)
Identifier LHPA
LHPA 051915Z 16004KT CAVOK 13/09 Q1026 NOSIG RMK BLU
From batch tds/metars/production/2022/10/5/h19_m49_metars.cache.csv.gz
Observed at (about 15 hours ago)
Identifier LHPA
LHPA 051845Z 15004KT CAVOK 13/09 Q1026 NOSIG RMK BLU
From batch tds/metars/production/2022/10/5/h19_m23_metars.cache.csv.gz
Observed at (about 16 hours ago)
Identifier LHPA
LHPA 051815Z 16006KT CAVOK 13/09 Q1026 NOSIG RMK BLU
From batch tds/metars/production/2022/10/5/h18_m53_metars.cache.csv.gz
Observed at (about 16 hours ago)
Identifier LHPA
LHPA 051745Z 16006KT CAVOK 13/10 Q1026 NOSIG RMK BLU
From batch tds/metars/production/2022/10/5/h18_m26_metars.cache.csv.gz
Observed at (about 17 hours ago)
Identifier LHPA
LHPA 051715Z 16004KT CAVOK 14/10 Q1026 NOSIG RMK BLU
From batch tds/metars/production/2022/10/5/h17_m55_metars.cache.csv.gz
Observed at (about 17 hours ago)
Identifier LHPA
LHPA 051645Z 16006KT CAVOK 14/10 Q1025 NOSIG RMK BLU
From batch tds/metars/production/2022/10/5/h17_m26_metars.cache.csv.gz
Observed at (about 18 hours ago)
Identifier LHPA
LHPA 051615Z 16006KT CAVOK 15/10 Q1025 NOSIG RMK BLU
From batch tds/metars/production/2022/10/5/h16_m57_metars.cache.csv.gz
Observed at (about 18 hours ago)
Identifier LHPA
LHPA 051545Z 17006KT CAVOK 16/10 Q1025 NOSIG RMK BLU
From batch tds/metars/production/2022/10/5/h16_m21_metars.cache.csv.gz
Observed at (about 19 hours ago)
Identifier LHPA
LHPA 051515Z 17008KT 140V200 CAVOK 17/10 Q1026 NOSIG RMK BLU
From batch tds/metars/production/2022/10/5/h15_m53_metars.cache.csv.gz
Observed at (about 19 hours ago)
Identifier LHPA
LHPA 051445Z 18010KT CAVOK 18/10 Q1026 NOSIG RMK BLU
From batch tds/metars/production/2022/10/5/h15_m24_metars.cache.csv.gz
Observed at (about 20 hours ago)
Identifier LHPA
LHPA 051415Z 18012KT 150V210 CAVOK 18/09 Q1026 NOSIG RMK BLU
From batch tds/metars/production/2022/10/5/h14_m58_metars.cache.csv.gz
Observed at (about 20 hours ago)
Identifier LHPA
LHPA 051315Z 17014KT CAVOK 19/10 Q1026 NOSIG RMK BLU
From batch tds/metars/production/2022/10/5/h13_m57_metars.cache.csv.gz
Observed at (about 21 hours ago)
Identifier LHPA
LHPA 051245Z 19012KT 150V220 CAVOK 18/09 Q1026 NOSIG RMK BLU
From batch tds/metars/production/2022/10/5/h13_m28_metars.cache.csv.gz
Observed at (about 22 hours ago)
Identifier LHPA
LHPA 051215Z 19012KT CAVOK 18/09 Q1026 NOSIG RMK BLU
From batch tds/metars/production/2022/10/5/h12_m57_metars.cache.csv.gz
Observed at (about 22 hours ago)
Identifier LHPA
LHPA 051145Z 19014KT CAVOK 19/10 Q1026 NOSIG RMK BLU
From batch tds/metars/production/2022/10/5/h12_m29_metars.cache.csv.gz
Observed at (about 23 hours ago)
Identifier LHPA
LHPA 051115Z 19012KT 160V220 CAVOK 19/09 Q1027 NOSIG RMK BLU
From batch tds/metars/production/2022/10/5/h11_m56_metars.cache.csv.gz
Observed at (about 23 hours ago)
Identifier LHPA
LHPA 051045Z 20014KT 160V220 CAVOK 19/10 Q1027 NOSIG RMK BLU
From batch tds/metars/production/2022/10/5/h11_m28_metars.cache.csv.gz
Observed at (about 24 hours ago)
Identifier LHPA
talk